createdAt,value
2022-11-03T00:02:13.333Z,5.32
2022-11-03T00:04:40.524Z,7.50
2022-11-03T00:07:07.968Z,5.25
2022-11-03T00:09:35.505Z,5.03
2022-11-03T00:12:02.630Z,4.00
2022-11-03T00:14:30.131Z,4.72
2022-11-03T00:16:57.331Z,4.05
2022-11-03T00:19:24.752Z,4.65
2022-11-03T00:21:52.758Z,3.33
2022-11-03T00:24:20.242Z,4.85
2022-11-03T00:26:47.375Z,3.85
2022-11-03T00:29:15.575Z,7.35
2022-11-03T00:31:44.718Z,3.70
2022-11-03T00:34:12.125Z,3.78
2022-11-03T00:36:42.037Z,5.53
2022-11-03T00:39:10.758Z,3.58
2022-11-03T00:41:38.065Z,5.00
2022-11-03T00:44:05.591Z,4.68
2022-11-03T00:46:36.030Z,5.47
2022-11-03T00:49:04.800Z,6.78
2022-11-03T00:51:34.536Z,8.10
2022-11-03T00:54:04.368Z,6.70
2022-11-03T00:56:37.455Z,7.88
2022-11-03T00:59:07.148Z,12.20
2022-11-03T01:01:46.448Z,6.47
2022-11-03T01:04:35.995Z,6.53
2022-11-03T01:07:05.821Z,10.23
2022-11-03T01:09:39.459Z,9.70
2022-11-03T01:12:09.453Z,9.27
2022-11-03T01:14:48.932Z,9.05
2022-11-03T01:17:18.823Z,10.23
2022-11-03T01:19:46.998Z,11.43
2022-11-03T01:22:15.597Z,6.80
2022-11-03T01:24:43.796Z,7.18
2022-11-03T01:27:13.649Z,6.40
2022-11-03T01:29:41.630Z,5.65
2022-11-03T01:32:09.056Z,7.45
2022-11-03T01:34:36.885Z,6.50
2022-11-03T01:37:04.430Z,12.30
2022-11-03T01:39:31.894Z,6.90
2022-11-03T01:41:59.102Z,6.95
2022-11-03T01:44:32.420Z,4.68
2022-11-03T01:47:21.133Z,6.43
2022-11-03T01:49:57.757Z,7.45
2022-11-03T01:52:30.951Z,8.60
2022-11-03T01:55:23.303Z,7.03
2022-11-03T01:58:15.006Z,5.43
2022-11-03T02:03:12.632Z,6.38
2022-11-03T02:05:41.930Z,6.18
2022-11-03T02:08:21.915Z,3.60
2022-11-03T02:10:50.768Z,7.93
2022-11-03T02:13:26.272Z,5.90
2022-11-03T02:15:58.089Z,4.68
2022-11-03T02:18:30.359Z,9.00
2022-11-03T02:21:26.741Z,7.53
2022-11-03T02:24:17.194Z,6.63
2022-11-03T02:26:48.938Z,7.47
2022-11-03T02:29:16.749Z,9.68
2022-11-03T02:31:51.470Z,6.78
2022-11-03T02:34:34.337Z,10.55
2022-11-03T02:37:11.292Z,7.13
2022-11-03T02:39:46.059Z,8.20
2022-11-03T02:42:15.686Z,10.02
2022-11-03T02:44:44.832Z,8.35
2022-11-03T02:47:13.720Z,8.55
2022-11-03T02:49:51.620Z,8.48
2022-11-03T02:52:37.695Z,10.18
2022-11-03T02:55:23.633Z,6.28
2022-11-03T02:58:00.474Z,8.73
2022-11-03T03:00:30.531Z,7.43
2022-11-03T03:03:02.000Z,12.40
2022-11-03T03:05:34.309Z,9.25
2022-11-03T03:08:05.930Z,7.30
2022-11-03T03:10:39.305Z,11.32
2022-11-03T03:13:08.786Z,9.80
2022-11-03T03:16:12.664Z,7.28
2022-11-03T03:19:13.602Z,8.15
2022-11-03T03:21:46.656Z,6.43
2022-11-03T03:25:01.461Z,10.32
2022-11-03T03:27:33.982Z,9.18
2022-11-03T03:30:07.306Z,7.00
2022-11-03T03:32:39.423Z,11.02
2022-11-03T03:35:11.200Z,9.98
2022-11-03T03:37:43.128Z,10.02
2022-11-03T03:40:15.500Z,6.38
2022-11-03T03:42:45.135Z,9.15
2022-11-03T03:45:13.731Z,13.45
2022-11-03T03:47:41.065Z,11.40
2022-11-03T03:50:08.710Z,10.60
2022-11-03T03:52:37.175Z,13.50
2022-11-03T03:55:07.805Z,11.38
2022-11-03T03:57:34.988Z,11.88
2022-11-03T04:00:02.485Z,11.02
2022-11-03T04:02:39.900Z,9.57
2022-11-03T04:05:07.377Z,17.13
2022-11-03T04:07:49.773Z,10.27
2022-11-03T04:10:19.866Z,10.70
2022-11-03T04:13:06.012Z,8.98
2022-11-03T04:16:02.785Z,11.63
2022-11-03T04:18:48.678Z,11.40
2022-11-03T04:21:34.930Z,14.43
2022-11-03T04:24:02.118Z,10.60
2022-11-03T04:26:30.129Z,7.85
2022-11-03T04:28:58.715Z,14.73
2022-11-03T04:31:26.650Z,9.13
2022-11-03T04:33:53.905Z,8.35
2022-11-03T04:36:23.939Z,9.57
2022-11-03T04:38:52.316Z,12.02
2022-11-03T04:41:31.967Z,9.18
2022-11-03T04:43:59.478Z,13.32
2022-11-03T04:46:29.187Z,13.70
2022-11-03T04:49:01.889Z,8.93
2022-11-03T04:51:33.197Z,12.75
2022-11-03T04:54:23.603Z,7.03
2022-11-03T04:56:51.190Z,11.80
2022-11-03T04:59:18.358Z,11.35
2022-11-03T05:01:46.528Z,13.80
2022-11-03T05:04:17.013Z,7.88
2022-11-03T05:06:51.077Z,7.35
2022-11-03T05:09:24.651Z,7.47
2022-11-03T05:11:52.033Z,9.68
2022-11-03T05:14:26.247Z,7.20
2022-11-03T05:16:55.542Z,7.55
2022-11-03T05:19:27.250Z,5.57
2022-11-03T05:21:57.304Z,5.13
2022-11-03T05:24:26.219Z,8.18
2022-11-03T05:26:56.125Z,11.77
2022-11-03T05:29:34.925Z,8.88
2022-11-03T05:32:02.094Z,10.93
2022-11-03T05:34:41.319Z,8.50
2022-11-03T05:37:28.804Z,4.90
2022-11-03T05:40:23.974Z,9.48
2022-11-03T05:42:56.041Z,7.43
2022-11-03T05:45:30.941Z,10.43
2022-11-03T05:47:58.592Z,11.48
2022-11-03T05:50:28.611Z,11.20
2022-11-03T05:53:19.814Z,11.32
2022-11-03T05:55:47.398Z,6.50
2022-11-03T05:58:37.477Z,4.80
2022-11-03T06:01:16.856Z,6.88
2022-11-03T06:03:44.536Z,9.50
2022-11-03T06:06:30.930Z,9.55
2022-11-03T06:09:02.635Z,5.47
2022-11-03T06:11:36.385Z,9.95
2022-11-03T06:14:21.235Z,9.63
2022-11-03T06:16:56.859Z,7.97
2022-11-03T06:19:35.527Z,5.95
2022-11-03T06:22:14.360Z,6.85
2022-11-03T06:24:41.601Z,8.25
2022-11-03T06:27:23.373Z,10.25
2022-11-03T06:30:01.726Z,9.15
2022-11-03T06:32:30.326Z,9.48
2022-11-03T06:34:58.873Z,8.65
2022-11-03T06:37:31.389Z,10.35
2022-11-03T06:40:02.098Z,5.97
2022-11-03T06:42:33.270Z,3.17
2022-11-03T06:45:02.573Z,9.48
2022-11-03T06:47:30.046Z,10.95
2022-11-03T06:49:59.808Z,6.68
2022-11-03T06:52:32.528Z,6.78
2022-11-03T06:55:17.084Z,7.05
2022-11-03T06:57:47.226Z,10.02
2022-11-03T07:00:39.903Z,4.85
2022-11-03T07:03:11.093Z,4.50
2022-11-03T07:05:39.662Z,7.15
2022-11-03T07:08:24.738Z,4.25
2022-11-03T07:11:15.153Z,9.93
2022-11-03T07:13:42.864Z,6.60
2022-11-03T07:16:22.563Z,13.57
2022-11-03T07:18:49.752Z,4.18
2022-11-03T07:21:40.885Z,7.82
2022-11-03T07:24:19.720Z,4.25
2022-11-03T07:26:47.456Z,6.20
2022-11-03T07:29:22.114Z,5.97
2022-11-03T07:31:53.697Z,7.95
2022-11-03T07:34:24.287Z,4.82
2022-11-03T07:36:55.956Z,3.83
2022-11-03T07:41:51.564Z,9.88
2022-11-03T07:44:21.848Z,7.80
2022-11-03T07:46:50.833Z,4.47
2022-11-03T07:49:29.137Z,7.82
2022-11-03T07:51:59.140Z,6.07
2022-11-03T07:54:31.104Z,5.72
2022-11-03T07:57:01.359Z,10.02
2022-11-03T07:59:33.719Z,9.82
2022-11-03T08:02:03.254Z,6.07
2022-11-03T08:04:33.979Z,8.27
2022-11-03T08:07:01.220Z,6.05
2022-11-03T08:09:28.655Z,7.40
2022-11-03T08:11:55.785Z,5.45
2022-11-03T08:14:23.187Z,7.13
2022-11-03T08:16:50.343Z,5.55
2022-11-03T08:19:17.925Z,5.50
2022-11-03T08:21:45.613Z,6.93
2022-11-03T08:24:13.047Z,7.88
2022-11-03T08:26:40.230Z,4.97
2022-11-03T08:29:07.716Z,5.72
2022-11-03T08:31:34.897Z,6.60
2022-11-03T08:34:02.290Z,6.13
2022-11-03T08:36:29.399Z,5.57
2022-11-03T08:38:56.815Z,9.13
2022-11-03T08:41:24.017Z,7.78
2022-11-03T08:43:51.492Z,5.80
2022-11-03T08:46:18.670Z,8.18
2022-11-03T08:48:46.857Z,8.85
2022-11-03T08:51:15.296Z,5.55
2022-11-03T08:53:43.317Z,5.28
2022-11-03T08:56:13.096Z,9.82
2022-11-03T09:01:09.709Z,9.32
2022-11-03T09:03:37.302Z,9.95
2022-11-03T09:06:04.879Z,3.47
2022-11-03T09:11:19.626Z,9.02
2022-11-03T09:13:47.215Z,6.90
2022-11-03T09:16:14.348Z,8.32
2022-11-03T09:18:41.461Z,4.68
2022-11-03T09:21:09.136Z,6.90
2022-11-03T09:23:36.368Z,8.15
2022-11-03T09:26:05.856Z,6.30
2022-11-03T09:28:33.193Z,8.82
2022-11-03T09:31:00.796Z,9.02
2022-11-03T09:33:27.966Z,6.18
2022-11-03T09:35:55.501Z,7.15
2022-11-03T09:38:22.791Z,5.63
2022-11-03T09:40:50.307Z,5.22
2022-11-03T09:43:20.341Z,5.13
2022-11-03T09:45:48.088Z,8.02
2022-11-03T09:48:15.302Z,6.00
2022-11-03T09:50:43.088Z,8.13
2022-11-03T09:53:12.351Z,7.32
2022-11-03T09:55:40.117Z,3.85
2022-11-03T09:58:16.133Z,5.35
2022-11-03T10:00:46.293Z,5.03
2022-11-03T10:03:17.018Z,4.35
2022-11-03T10:05:45.478Z,6.45
2022-11-03T10:08:26.171Z,5.78
2022-11-03T10:10:54.658Z,6.25
2022-11-03T10:13:30.493Z,7.25
2022-11-03T10:16:00.640Z,7.35
2022-11-03T10:18:28.876Z,6.50
2022-11-03T10:20:58.782Z,6.22
2022-11-03T10:23:25.889Z,5.20
2022-11-03T10:26:03.856Z,5.38
2022-11-03T10:28:31.022Z,8.35
2022-11-03T10:31:11.747Z,7.03
2022-11-03T10:33:42.025Z,7.55
2022-11-03T10:36:15.703Z,3.00
2022-11-03T10:38:43.804Z,6.68
2022-11-03T10:41:13.962Z,4.20
2022-11-03T10:43:43.225Z,6.15
2022-11-03T10:46:36.347Z,5.07
2022-11-03T10:49:24.929Z,7.53
2022-11-03T10:51:54.345Z,3.28
2022-11-03T10:54:24.223Z,4.80
2022-11-03T10:56:52.652Z,5.53
2022-11-03T10:59:24.525Z,3.38
2022-11-03T11:01:51.952Z,4.32
2022-11-03T11:04:21.079Z,6.35
2022-11-03T11:06:49.482Z,4.40
2022-11-03T11:09:25.861Z,6.15
2022-11-03T11:12:03.796Z,3.97
2022-11-03T11:14:34.780Z,5.20
2022-11-03T11:17:02.778Z,7.25
2022-11-03T11:19:31.450Z,4.90
2022-11-03T11:22:00.867Z,8.93
2022-11-03T11:24:43.305Z,4.63
2022-11-03T11:27:32.479Z,4.70
2022-11-03T11:30:01.059Z,5.82
2022-11-03T11:32:58.129Z,3.72
2022-11-03T11:35:26.374Z,6.70
2022-11-03T11:37:54.638Z,5.40
2022-11-03T11:40:24.686Z,7.25
2022-11-03T11:43:07.472Z,7.05
2022-11-03T11:46:12.894Z,6.97
2022-11-03T11:48:40.248Z,4.22
2022-11-03T11:51:12.120Z,8.68
2022-11-03T11:53:42.179Z,9.13
2022-11-03T11:56:12.882Z,5.43
2022-11-03T11:58:46.411Z,5.03
2022-11-03T12:01:21.899Z,7.25
2022-11-03T12:03:51.233Z,5.72
2022-11-03T12:06:32.425Z,3.92
2022-11-03T12:09:22.692Z,9.03
2022-11-03T12:11:55.690Z,8.75
2022-11-03T12:14:24.362Z,8.38
2022-11-03T12:16:53.053Z,8.15
2022-11-03T12:19:40.599Z,6.95
2022-11-03T12:22:10.801Z,5.57
2022-11-03T12:24:52.410Z,6.70
2022-11-03T12:27:19.909Z,4.20
2022-11-03T12:29:47.071Z,7.88
2022-11-03T12:32:32.676Z,10.80
2022-11-03T12:35:08.302Z,9.70
2022-11-03T12:37:36.119Z,10.85
2022-11-03T12:40:04.448Z,7.78
2022-11-03T12:42:31.640Z,5.68
2022-11-03T12:44:58.794Z,6.75
2022-11-03T12:47:26.272Z,7.97
2022-11-03T12:49:53.888Z,10.95
2022-11-03T12:52:21.286Z,9.75
2022-11-03T12:54:48.917Z,5.38
2022-11-03T12:57:16.444Z,7.53
2022-11-03T12:59:43.567Z,5.82
2022-11-03T13:02:12.072Z,7.85
2022-11-03T13:04:39.377Z,8.68
2022-11-03T13:07:06.835Z,11.73
2022-11-03T13:09:36.033Z,7.72
2022-11-03T13:12:22.216Z,9.38
2022-11-03T13:14:49.439Z,9.20
2022-11-03T13:17:16.880Z,8.05
2022-11-03T13:19:44.041Z,9.52
2022-11-03T13:22:11.489Z,11.13
2022-11-03T13:24:38.668Z,6.88
2022-11-03T13:27:06.300Z,6.13
2022-11-03T13:29:35.675Z,9.13
2022-11-03T13:32:04.884Z,11.40
2022-11-03T13:34:32.078Z,3.42
2022-11-03T13:36:59.856Z,6.80
2022-11-03T13:39:27.042Z,9.50
2022-11-03T13:41:54.491Z,7.20
2022-11-03T13:44:21.647Z,10.25
2022-11-03T13:46:49.409Z,3.90
2022-11-03T13:49:52.513Z,4.45
2022-11-03T13:52:04.415Z,5.75
2022-11-03T14:00:08.177Z,9.68
2022-11-03T14:05:28.929Z,14.25
2022-11-03T14:07:56.456Z,8.93
2022-11-03T14:10:23.776Z,7.43
2022-11-03T14:12:51.213Z,5.88
2022-11-03T14:15:18.378Z,7.78
2022-11-03T14:17:45.834Z,7.32
2022-11-03T14:20:13.355Z,6.75
2022-11-03T14:22:41.193Z,7.85
2022-11-03T14:25:08.627Z,10.05
2022-11-03T14:27:36.158Z,8.02
2022-11-03T14:30:04.513Z,8.18
2022-11-03T14:32:32.057Z,8.63
2022-11-03T14:34:59.273Z,8.63
2022-11-03T14:37:28.767Z,8.20
2022-11-03T14:39:56.040Z,9.27
2022-11-03T14:42:24.301Z,10.93
2022-11-03T14:47:23.618Z,11.77
2022-11-03T14:49:51.199Z,9.90
2022-11-03T14:52:18.421Z,17.48
2022-11-03T14:54:45.736Z,12.57
2022-11-03T14:57:13.258Z,9.15
2022-11-03T14:59:40.568Z,11.63
2022-11-03T15:02:08.159Z,9.77
2022-11-03T15:04:35.412Z,12.48
2022-11-03T15:07:02.903Z,9.52
2022-11-03T15:09:30.135Z,16.63
2022-11-03T15:11:57.511Z,10.73
2022-11-03T15:14:24.991Z,10.88
2022-11-03T15:16:52.107Z,12.88
2022-11-03T15:19:19.261Z,11.43
2022-11-03T15:21:46.795Z,14.18
2022-11-03T15:27:01.350Z,11.00
2022-11-03T15:29:28.562Z,14.85
2022-11-03T15:31:56.125Z,15.40
2022-11-03T15:34:23.312Z,14.05
2022-11-03T15:36:50.758Z,18.08
2022-11-03T15:39:17.986Z,16.27
2022-11-03T15:41:45.478Z,15.82
2022-11-03T15:44:12.612Z,17.90
2022-11-03T15:46:40.050Z,16.75
2022-11-03T15:49:07.181Z,19.05
2022-11-03T15:51:34.667Z,17.45
2022-11-03T15:54:02.615Z,17.92
2022-11-03T15:56:30.245Z,18.85
2022-11-03T15:58:57.374Z,19.05
2022-11-03T16:01:25.192Z,17.65
2022-11-03T16:03:52.429Z,18.88
2022-11-03T16:06:27.024Z,15.80
2022-11-03T16:09:02.251Z,19.50
2022-11-03T16:11:29.882Z,20.80
2022-11-03T16:13:57.215Z,16.05
2022-11-03T16:16:24.351Z,21.10
2022-11-03T16:18:51.943Z,24.35
2022-11-03T16:21:19.152Z,22.73
2022-11-03T16:23:46.656Z,22.83
2022-11-03T16:26:13.818Z,23.33
2022-11-03T16:28:41.320Z,18.08
2022-11-03T16:31:08.473Z,28.13
2022-11-03T16:33:36.362Z,23.50
2022-11-03T16:36:03.629Z,19.63
2022-11-03T16:38:31.056Z,24.08
2022-11-03T16:40:58.245Z,22.17
2022-11-03T16:43:25.740Z,28.17
2022-11-03T16:45:52.904Z,26.40
2022-11-03T16:48:20.911Z,24.05
2022-11-03T16:50:49.424Z,25.80
2022-11-03T16:53:19.004Z,17.52
2022-11-03T16:55:47.417Z,30.88
2022-11-03T16:58:15.017Z,28.35
2022-11-03T17:00:43.040Z,25.77
2022-11-03T17:03:10.700Z,21.63
2022-11-03T17:05:37.915Z,23.33
2022-11-03T17:08:05.641Z,22.60
2022-11-03T17:10:32.797Z,21.92
2022-11-03T17:13:00.416Z,26.38
2022-11-03T17:15:27.620Z,26.95
2022-11-03T17:17:55.112Z,25.98
2022-11-03T17:20:22.234Z,31.05
2022-11-03T17:22:50.791Z,30.27
2022-11-03T17:25:18.256Z,30.83
2022-11-03T17:27:52.368Z,26.95
2022-11-03T17:30:31.336Z,34.50
2022-11-03T17:33:02.357Z,29.80
2022-11-03T17:35:39.928Z,36.53
2022-11-03T17:38:15.727Z,33.80
2022-11-03T17:40:45.478Z,35.40
2022-11-03T17:43:15.699Z,32.67
2022-11-03T17:45:42.866Z,41.25
2022-11-03T17:48:10.324Z,31.45
2022-11-03T17:50:37.485Z,30.63
2022-11-03T17:53:05.213Z,35.40
2022-11-03T17:55:33.276Z,41.17
2022-11-03T17:58:04.063Z,36.30
2022-11-03T18:00:31.600Z,39.00
2022-11-03T18:02:59.085Z,41.15
2022-11-03T18:05:30.167Z,37.13
2022-11-03T18:08:00.413Z,41.30
2022-11-03T18:10:32.220Z,42.25
2022-11-03T18:13:17.734Z,32.72
2022-11-03T18:15:52.605Z,41.13
2022-11-03T18:18:43.637Z,36.45
2022-11-03T18:21:18.873Z,44.05
2022-11-03T18:23:46.521Z,36.80
2022-11-03T18:26:17.530Z,31.65
2022-11-03T18:28:45.081Z,39.83
2022-11-03T18:31:25.463Z,40.50
2022-11-03T18:33:53.926Z,41.38
2022-11-03T18:36:21.080Z,45.53
2022-11-03T18:38:49.081Z,40.33
2022-11-03T18:41:39.211Z,40.47
2022-11-03T18:44:22.881Z,40.42
2022-11-03T18:46:55.546Z,42.55
2022-11-03T18:49:25.079Z,37.97
2022-11-03T18:52:15.701Z,36.60
2022-11-03T18:54:52.350Z,38.15
2022-11-03T18:57:23.703Z,38.72
2022-11-03T18:59:52.235Z,34.50
2022-11-03T19:02:22.499Z,39.17
2022-11-03T19:04:50.292Z,36.50
2022-11-03T19:07:22.979Z,37.45
2022-11-03T19:09:50.831Z,41.28
2022-11-03T19:12:18.534Z,38.03
2022-11-03T19:14:48.575Z,43.67
2022-11-03T19:17:23.421Z,38.13
2022-11-03T19:19:54.590Z,36.65
2022-11-03T19:22:23.181Z,37.42
2022-11-03T19:24:50.712Z,35.47
2022-11-03T19:27:25.844Z,43.83
2022-11-03T19:29:54.758Z,41.38
2022-11-03T19:32:29.472Z,42.80
2022-11-03T19:35:07.992Z,40.40
2022-11-03T19:37:36.288Z,41.83
2022-11-03T19:40:09.179Z,36.75
2022-11-03T19:42:37.133Z,46.03
2022-11-03T19:45:07.142Z,45.42
2022-11-03T19:47:57.613Z,41.75
2022-11-03T19:50:32.807Z,45.38
2022-11-03T19:53:03.208Z,42.65
2022-11-03T19:55:41.072Z,45.35
2022-11-03T19:58:25.992Z,42.70
2022-11-03T20:00:53.940Z,45.58
2022-11-03T20:03:22.344Z,47.70
2022-11-03T20:06:00.292Z,46.03
2022-11-03T20:08:32.319Z,42.15
2022-11-03T20:10:59.963Z,38.33
2022-11-03T20:13:32.795Z,41.05
2022-11-03T20:16:01.484Z,40.70
2022-11-03T20:18:29.118Z,48.60
2022-11-03T20:20:56.808Z,43.78
2022-11-03T20:23:28.888Z,45.55
2022-11-03T20:25:56.655Z,45.97
2022-11-03T20:28:28.537Z,43.47
2022-11-03T20:30:56.685Z,46.70
2022-11-03T20:33:25.550Z,38.83
2022-11-03T20:35:53.853Z,39.60
2022-11-03T20:38:22.938Z,42.15
2022-11-03T20:40:58.201Z,45.92
2022-11-03T20:43:34.796Z,39.85
2022-11-03T20:46:04.109Z,41.53
2022-11-03T20:48:31.577Z,36.58
2022-11-03T20:50:58.958Z,35.10
2022-11-03T20:53:26.681Z,37.13
2022-11-03T20:55:54.019Z,39.67
2022-11-03T20:58:21.851Z,42.42
2022-11-03T21:00:49.146Z,34.20
2022-11-03T21:03:38.105Z,38.65
2022-11-03T21:06:09.862Z,29.33
2022-11-03T21:08:37.283Z,34.90
2022-11-03T21:11:25.279Z,34.03
2022-11-03T21:13:58.326Z,36.47
2022-11-03T21:16:46.193Z,35.45
2022-11-03T21:19:39.992Z,33.13
2022-11-03T21:22:38.270Z,36.35
2022-11-03T21:25:11.637Z,30.48
2022-11-03T21:27:41.799Z,28.05
2022-11-03T21:30:15.120Z,30.63
2022-11-03T21:32:42.882Z,33.92
2022-11-03T21:35:15.012Z,27.67
2022-11-03T21:37:42.243Z,31.65
2022-11-03T21:40:13.261Z,38.45
2022-11-03T21:42:59.330Z,36.55
2022-11-03T21:45:26.952Z,30.95
2022-11-03T21:48:14.307Z,33.97
2022-11-03T21:50:43.089Z,33.70
2022-11-03T21:53:11.511Z,31.00
2022-11-03T21:55:39.736Z,36.50
2022-11-03T21:58:06.904Z,37.05
2022-11-03T22:00:34.627Z,32.03
2022-11-03T22:03:01.886Z,32.45
2022-11-03T22:05:29.580Z,22.67
2022-11-03T22:07:56.965Z,31.42
2022-11-03T22:10:25.017Z,33.13
2022-11-03T22:12:52.232Z,30.45
2022-11-03T22:15:38.319Z,33.25
2022-11-03T22:18:06.696Z,31.55
2022-11-03T22:20:55.398Z,29.70
2022-11-03T22:23:41.304Z,37.75
2022-11-03T22:26:30.328Z,35.13
2022-11-03T22:29:16.973Z,30.98
2022-11-03T22:31:44.545Z,28.10
2022-11-03T22:34:30.110Z,29.50
2022-11-03T22:36:57.664Z,33.38
2022-11-03T22:39:43.716Z,35.97
2022-11-03T22:42:30.843Z,35.40
2022-11-03T22:45:16.726Z,28.58
2022-11-03T22:47:44.314Z,29.65
2022-11-03T22:50:11.454Z,41.03
2022-11-03T22:52:39.206Z,38.20
2022-11-03T22:55:06.791Z,39.58
2022-11-03T22:57:34.294Z,38.20
2022-11-03T23:00:01.445Z,43.72
2022-11-03T23:02:29.050Z,31.98
2022-11-03T23:04:56.304Z,39.22
2022-11-03T23:07:28.484Z,34.97
2022-11-03T23:09:59.236Z,36.80
2022-11-03T23:12:28.665Z,34.88
2022-11-03T23:15:14.237Z,34.88
2022-11-03T23:18:00.255Z,31.35
2022-11-03T23:21:05.836Z,33.75
2022-11-03T23:23:55.409Z,34.00
2022-11-03T23:26:24.376Z,32.60
2022-11-03T23:28:51.934Z,30.50
2022-11-03T23:31:19.065Z,31.17
2022-11-03T23:33:46.695Z,32.03
2022-11-03T23:36:15.530Z,34.20
2022-11-03T23:38:43.363Z,46.90
2022-11-03T23:41:16.493Z,38.97
2022-11-03T23:43:45.009Z,40.03
2022-11-03T23:46:32.763Z,38.63
2022-11-03T23:49:00.315Z,39.05
2022-11-03T23:51:29.266Z,41.17
2022-11-03T23:53:57.959Z,41.92
2022-11-03T23:56:46.066Z,35.55
2022-11-03T23:59:15.447Z,53.75
